.
WxDataArchive / Data Records for 2015-10-17
2015-10-16 October 2015 2015-10-18

Data Records for Saturday, 17 October 2015

Time	Temp	Chill	HIndex	Humid	Dewpt	 Wind 	HiWind	WindDir	Rain 	Barom
-----	----	-----	------	-----	-----	------	------	-------	-----	-----
00:00	37.3	37.3	37.3	81	32.0	0	0	---	0.00	30.251 
00:05	37.3	37.3	37.3	81	32.0	0	0	---	0.00	30.251 
00:10	37.3	37.3	37.3	81	32.0	0	0	---	0.00	30.251 
00:15	37.5	37.5	37.5	82	32.5	0	0	---	0.00	30.258 
00:20	37.6	37.6	37.6	83	32.9	0	0	---	0.00	30.258 
00:25	37.8	37.8	37.8	83	33.1	0	0	---	0.00	30.258 
00:30	37.9	37.9	37.9	83	33.2	0	0	---	0.00	30.260 
00:35	38.0	38.0	38.0	83	33.3	0	0	---	0.00	30.260 
00:40	38.2	38.2	38.2	83	33.5	0	0	---	0.00	30.260 
00:45	38.3	38.3	38.3	83	33.6	0	0	---	0.00	30.259 
00:50	38.3	38.3	38.3	83	33.6	0	0	---	0.00	30.259 
00:55	38.5	38.5	38.5	83	33.8	0	0	---	0.00	30.259 
01:00	38.6	38.6	38.6	83	33.9	0	0	---	0.00	30.257 
01:05	38.6	38.6	38.6	83	33.9	0	0	---	0.00	30.257 
01:10	38.8	38.8	38.8	83	34.1	0	0	---	0.00	30.257 
01:15	38.9	38.9	38.9	83	34.2	0	0	---	0.00	30.256 
01:20	38.9	38.9	38.9	83	34.2	0	0	---	0.00	30.256 
01:25	39.1	39.1	39.1	83	34.4	0	0	---	0.00	30.256 
01:30	39.2	39.2	39.2	83	34.5	0	0	---	0.00	30.259 
01:35	39.2	39.2	39.2	83	34.5	0	0	---	0.00	30.259 
01:40	39.3	39.3	39.3	83	34.6	0	0	---	0.00	30.259 
01:45	39.3	39.3	39.3	83	34.6	0	0	---	0.00	30.262 
01:50	39.5	39.5	39.5	83	34.8	0	0	---	0.00	30.262 
01:55	39.5	39.5	39.5	82	34.5	0	0	---	0.00	30.262 
02:00	39.6	39.6	39.6	82	34.6	0	0	---	0.00	30.261 
02:05	39.6	39.6	39.6	81	34.3	0	0	---	0.00	30.261 
02:10	39.8	39.8	39.8	81	34.5	0	0	---	0.00	30.261 
02:15	40.1	40.1	40.1	79	34.1	0	0	---	0.00	30.261 
02:20	40.2	40.2	40.2	79	34.2	0	0	---	0.00	30.261 
02:25	40.2	40.2	40.2	78	33.9	0	0	---	0.00	30.261 
02:30	40.3	40.3	40.3	78	34.0	0	0	---	0.00	30.262 
02:35	40.3	40.3	40.3	78	34.0	0	0	---	0.00	30.262 
02:40	40.3	40.3	40.3	78	34.0	0	0	---	0.00	30.262 
02:45	40.3	40.3	40.3	78	34.0	0	0	---	0.00	30.262 
02:50	40.3	40.3	40.3	78	34.0	0	0	---	0.00	30.262 
02:55	40.3	40.3	40.3	79	34.3	0	0	---	0.00	30.262 
03:00	40.2	40.2	40.2	79	34.2	0	0	---	0.00	30.263 
03:05	40.2	40.2	40.2	79	34.2	0	0	---	0.00	30.263 
03:10	40.1	40.1	40.1	79	34.1	0	0	---	0.00	30.263 
03:15	40.1	40.1	40.1	79	34.1	0	0	---	0.00	30.264 
03:20	39.9	39.9	39.9	79	33.9	0	0	---	0.00	30.264 
03:25	39.8	39.8	39.8	80	34.1	0	0	---	0.00	30.264 
03:30	39.6	39.6	39.6	80	33.9	0	0	---	0.00	30.269 
03:35	39.6	39.6	39.6	80	33.9	0	0	---	0.00	30.269 
03:40	39.6	39.6	39.6	80	33.9	0	0	---	0.00	30.269 
03:45	39.6	39.6	39.6	81	34.3	0	0	---	0.00	30.267 
03:50	39.5	39.5	39.5	81	34.2	0	0	---	0.00	30.267 
03:55	39.5	39.5	39.5	82	34.5	0	0	---	0.00	30.267 
04:00	39.3	39.3	39.3	82	34.3	0	0	---	0.00	30.267 
04:05	39.3	39.3	39.3	82	34.3	0	0	---	0.00	30.267 
04:10	39.3	39.3	39.3	82	34.3	0	0	---	0.00	30.267 
04:15	39.3	39.3	39.3	82	34.3	0	0	---	0.00	30.271 
04:20	39.3	39.3	39.3	83	34.6	0	0	---	0.00	30.271 
04:25	39.3	39.3	39.3	83	34.6	0	0	---	0.00	30.271 
04:30	39.5	39.5	39.5	83	34.8	0	0	---	0.00	30.275 
04:35	39.5	39.5	39.5	83	34.8	0	0	---	0.00	30.275 
04:40	39.5	39.5	39.5	84	35.1	0	0	---	0.00	30.275 
04:45	39.6	39.6	39.6	84	35.2	0	0	---	0.00	30.277 
04:50	39.6	39.6	39.6	84	35.2	0	0	---	0.00	30.277 
04:55	39.8	39.8	39.8	84	35.4	0	0	---	0.00	30.277 
05:00	39.8	39.8	39.8	84	35.4	0	0	---	0.00	30.275 
05:05	39.9	39.9	39.9	84	35.5	0	0	---	0.00	30.275 
05:10	39.9	39.9	39.9	84	35.5	0	0	---	0.00	30.275 
05:15	39.9	39.9	39.9	84	35.5	0	0	---	0.00	30.279 
05:20	39.9	39.9	39.9	84	35.5	0	0	---	0.00	30.279 
05:25	39.9	39.9	39.9	84	35.5	0	0	---	0.00	30.279 
05:30	39.9	39.9	39.9	84	35.5	0	0	---	0.00	30.282 
05:35	39.9	39.9	39.9	83	35.2	0	0	---	0.00	30.282 
05:40	39.8	39.8	39.8	83	35.1	0	0	---	0.00	30.282 
05:45	39.8	39.8	39.8	83	35.1	0	0	---	0.00	30.284 
05:50	39.8	39.8	39.8	83	35.1	0	0	---	0.00	30.284 
05:55	39.8	39.8	39.8	83	35.1	0	0	---	0.00	30.284 
06:00	39.8	39.8	39.8	83	35.1	0	0	---	0.00	30.285 
06:05	39.8	39.8	39.8	83	35.1	0	0	---	0.00	30.285 
06:10	39.6	39.6	39.6	83	34.9	0	0	---	0.00	30.285 
06:15	39.6	39.6	39.6	83	34.9	0	0	---	0.00	30.293 
06:20	39.6	39.6	39.6	84	35.2	0	0	---	0.00	30.293 
06:25	39.6	39.6	39.6	84	35.2	0	0	---	0.00	30.293 
06:30	39.6	39.6	39.6	84	35.2	0	0	---	0.00	30.300 
06:35	39.6	39.6	39.6	84	35.2	0	0	---	0.00	30.300 
06:40	39.6	39.6	39.6	84	35.2	0	0	---	0.00	30.300 
06:45	39.6	39.6	39.6	84	35.2	0	0	---	0.00	30.301 
06:50	39.6	39.6	39.6	84	35.2	0	0	---	0.00	30.301 
06:55	39.8	39.8	39.8	84	35.4	0	0	---	0.00	30.301 
07:00	39.8	39.8	39.8	84	35.4	0	0	---	0.00	30.303 
07:05	39.8	39.8	39.8	84	35.4	0	0	---	0.00	30.303 
07:10	39.8	39.8	39.8	84	35.4	0	0	---	0.00	30.303 
07:15	39.8	39.8	39.8	84	35.4	0	0	---	0.00	30.307 
07:20	39.6	39.6	39.6	84	35.2	0	0	---	0.00	30.307 
07:25	39.6	39.6	39.6	84	35.2	0	0	---	0.00	30.307 
07:30	39.6	39.6	39.6	84	35.2	0	0	---	0.00	30.312 
07:35	39.6	39.6	39.6	84	35.2	0	0	---	0.00	30.312 
07:40	39.6	39.6	39.6	84	35.2	0	0	---	0.00	30.312 
07:45	39.6	39.6	39.6	85	35.5	0	0	---	0.00	30.316 
07:50	39.6	39.6	39.6	85	35.5	0	0	---	0.00	30.316 
07:55	39.6	39.6	39.6	85	35.5	0	0	---	0.00	30.316 
08:00	39.6	39.6	39.6	85	35.5	0	0	---	0.00	30.321 
08:05	39.6	39.6	39.6	85	35.5	0	0	---	0.00	30.321 
08:10	39.8	39.8	39.8	85	35.7	0	0	---	0.00	30.321 
08:15	39.8	39.8	39.8	85	35.7	0	0	---	0.00	30.325 
08:20	39.9	39.9	39.9	85	35.8	0	0	---	0.00	30.325 
08:25	39.9	39.9	39.9	85	35.8	0	0	---	0.00	30.325 
08:30	39.9	39.9	39.9	85	35.8	0	0	---	0.00	30.332 
08:35	39.9	39.9	39.9	85	35.8	0	0	---	0.00	30.332 
08:40	40.1	40.1	40.1	85	36.0	0	0	---	0.00	30.332 
08:45	40.1	40.1	40.1	85	36.0	0	0	---	0.00	30.334 
08:50	40.2	40.2	40.2	85	36.1	0	0	---	0.00	30.334 
08:55	40.2	40.2	40.2	85	36.1	0	0	---	0.00	30.334 
09:00	40.3	40.3	40.3	84	35.9	0	0	---	0.00	30.338 
09:05	40.3	40.3	40.3	84	35.9	0	0	---	0.00	30.338 
09:10	40.5	40.5	40.5	84	36.1	0	0	---	0.00	30.338 
09:15	40.6	40.6	40.6	83	35.8	0	0	---	0.00	30.346 
09:20	40.8	40.8	40.8	83	36.0	0	0	---	0.00	30.346 
09:25	40.9	40.9	40.9	81	35.5	0	0	---	0.00	30.346 
09:30	41.1	41.1	41.1	80	35.4	0	0	---	0.00	30.353 
09:35	41.1	41.1	41.1	80	35.4	0	0	---	0.00	30.353 
09:40	41.2	41.2	41.2	79	35.2	0	1	315	0.00	30.353 
09:45	41.3	41.3	41.3	78	35.0	0	1	315	0.00	30.358 
09:50	41.5	41.5	41.5	77	34.8	0	0	---	0.00	30.358 
09:55	41.5	41.5	41.5	75	34.2	0	1	315	0.00	30.358 
10:00	41.5	41.5	41.5	74	33.8	0	1	315	0.00	30.366 
10:05	41.6	41.6	41.6	73	33.6	0	1	315	0.00	30.366 
10:10	41.6	41.6	41.6	71	32.9	0	1	315	0.00	30.366 
10:15	41.6	41.6	41.6	70	32.6	0	1	315	0.00	30.371 
10:20	41.8	41.8	41.8	67	31.7	0	1	315	0.00	30.371 
10:25	41.9	41.9	41.9	66	31.4	0	1	315	0.00	30.371 
10:30	41.9	41.9	41.9	64	30.6	0	1	315	0.00	30.373 
10:35	42.2	42.2	42.2	64	30.9	0	1	315	0.00	30.373 
10:40	42.3	42.3	42.3	62	30.2	0	1	315	0.00	30.373 
10:45	42.5	42.5	42.5	59	29.2	1	3	315	0.00	30.372 
10:50	42.8	42.8	42.8	59	29.5	0	2	315	0.00	30.372 
10:55	43.1	43.1	43.1	58	29.3	0	1	315	0.00	30.372 
11:00	43.2	43.2	43.2	55	28.1	0	2	315	0.00	30.379 
11:05	43.2	43.2	43.2	52	26.8	1	4	315	0.00	30.379 
11:10	43.2	43.2	43.2	54	27.7	1	3	315	0.00	30.379 
11:15	43.3	43.3	43.3	53	27.3	1	4	315	0.00	30.385 
11:20	43.5	43.5	43.5	52	27.1	1	2	315	0.00	30.385 
11:25	43.5	43.5	43.5	52	27.1	1	4	292	0.00	30.385 
11:30	43.6	43.6	43.6	52	27.1	0	2	292	0.00	30.387 
11:35	43.6	43.6	43.6	51	26.7	0	2	292	0.00	30.387 
11:40	43.5	43.5	43.5	51	26.6	0	2	292	0.00	30.387 
11:45	43.8	43.8	43.8	51	26.9	0	2	292	0.00	30.388 
11:50	44.1	44.1	44.1	51	27.1	0	2	292	0.00	30.388 
11:55	44.2	44.2	44.2	49	26.3	1	5	315	0.00	30.388 
12:00	44.3	44.3	44.3	50	26.8	1	3	315	0.00	30.385 
12:05	44.6	44.6	44.6	50	27.1	1	3	315	0.00	30.385 
12:10	45.1	45.1	45.1	50	27.6	1	5	315	0.00	30.385 
12:15	45.2	45.2	45.2	48	26.7	2	5	315	0.00	30.379 
12:20	45.2	45.2	45.2	48	26.7	1	4	292	0.00	30.379 
12:25	45.5	45.5	45.5	48	27.0	1	4	315	0.00	30.379 
12:30	45.2	45.2	45.2	47	26.2	1	3	315	0.00	30.381 
12:35	45.2	45.2	45.2	48	26.7	1	4	292	0.00	30.381 
12:40	45.7	45.7	45.7	49	27.6	2	6	315	0.00	30.381 
12:45	46.1	46.1	46.1	48	27.5	1	3	315	0.00	30.379 
12:50	46.4	46.4	46.4	48	27.8	1	4	292	0.00	30.379 
12:55	46.7	46.7	46.7	45	26.5	2	5	292	0.00	30.379 
13:00	46.2	46.2	46.2	46	26.6	2	5	338	0.00	30.380 
13:05	46.1	46.1	46.1	46	26.5	2	7	292	0.00	30.380 
13:10	46.0	46.0	46.0	47	26.9	1	5	315	0.00	30.380 
13:15	46.0	46.0	46.0	47	26.9	1	5	315	0.00	30.377 
13:20	45.7	45.7	45.7	48	27.1	1	3	315	0.00	30.377 
13:25	46.0	46.0	46.0	48	27.4	1	4	315	0.00	30.377 
13:30	46.4	46.4	46.4	47	27.3	2	5	315	0.00	30.370 
13:35	46.2	46.2	46.2	46	26.6	2	4	292	0.00	30.370 
13:40	46.1	46.1	46.1	46	26.5	1	5	292	0.00	30.370 
13:45	46.1	46.1	46.1	47	27.0	0	4	315	0.00	30.367 
13:50	45.8	45.8	45.8	46	26.2	1	5	338	0.00	30.367 
13:55	45.7	45.7	45.7	47	26.6	1	3	292	0.00	30.367 
14:00	45.7	45.7	45.7	47	26.6	1	3	292	0.00	30.365 
14:05	45.5	45.5	45.5	47	26.5	1	4	292	0.00	30.365 
14:10	45.7	45.7	45.7	47	26.6	1	3	315	0.00	30.365 
14:15	45.8	45.8	45.8	46	26.2	2	6	292	0.00	30.359 
14:20	45.8	45.8	45.8	45	25.7	2	7	270	0.00	30.359 
14:25	45.8	45.8	45.8	46	26.2	1	5	292	0.00	30.359 
14:30	45.8	45.8	45.8	46	26.2	1	3	292	0.00	30.355 
14:35	45.7	45.7	45.7	46	26.1	2	5	292	0.00	30.355 
14:40	45.5	45.5	45.5	46	25.9	1	5	270	0.00	30.355 
14:45	45.4	45.4	45.4	47	26.4	1	3	338	0.00	30.355 
14:50	45.4	45.4	45.4	46	25.8	1	4	292	0.00	30.355 
14:55	45.5	45.5	45.5	47	26.5	1	3	292	0.00	30.355 
15:00	45.7	45.7	45.7	47	26.6	0	2	292	0.00	30.353 
15:05	45.8	45.8	45.8	48	27.2	0	3	292	0.00	30.353 
15:10	46.0	46.0	46.0	46	26.4	2	7	315	0.00	30.353 
15:15	46.1	46.1	46.1	45	26.0	1	4	315	0.00	30.353 
15:20	46.1	46.1	46.1	46	26.5	1	3	315	0.00	30.353 
15:25	46.1	46.1	46.1	45	26.0	1	5	315	0.00	30.353 
15:30	46.2	46.2	46.2	43	25.0	2	4	292	0.00	30.353 
15:35	46.2	46.2	46.2	41	23.8	2	6	292	0.00	30.353 
15:40	46.1	46.1	46.1	42	24.3	2	5	315	0.00	30.353 
15:45	46.4	46.4	46.4	42	24.6	2	5	270	0.00	30.351 
15:50	46.7	46.7	46.7	40	23.7	1	5	270	0.00	30.351 
15:55	46.8	46.8	46.8	38	22.5	2	7	292	0.00	30.351 
16:00	46.7	45.1	46.7	35	20.5	4	7	315	0.00	30.351 
16:05	46.5	46.5	46.5	35	20.3	2	10	292	0.00	30.351 
16:10	46.4	44.7	46.4	35	20.3	4	13	292	0.00	30.351 
16:15	46.2	46.2	46.2	36	20.7	3	13	292	0.00	30.352 
16:20	46.4	46.4	46.4	37	21.6	2	9	292	0.00	30.352 
16:25	46.4	46.4	46.4	38	22.2	3	7	292	0.00	30.352 
16:30	46.4	46.4	46.4	38	22.2	3	6	292	0.00	30.352 
16:35	46.4	46.4	46.4	39	22.8	2	9	315	0.00	30.352 
16:40	46.4	46.4	46.4	39	22.8	3	6	292	0.00	30.352 
16:45	46.4	46.4	46.4	40	23.4	2	6	292	0.00	30.356 
16:50	46.2	46.2	46.2	39	22.6	3	8	292	0.00	30.356 
16:55	46.0	46.0	46.0	38	21.8	3	7	292	0.00	30.356 
17:00	45.8	45.8	45.8	39	22.3	2	7	338	0.00	30.357 
17:05	45.7	45.7	45.7	39	22.2	2	7	292	0.00	30.357 
17:10	45.5	45.5	45.5	39	22.0	2	5	292	0.00	30.357 
17:15	45.5	45.5	45.5	39	22.0	1	3	292	0.00	30.352 
17:20	46.0	46.0	46.0	40	23.0	1	3	315	0.00	30.352 
17:25	46.4	46.4	46.4	39	22.8	1	4	338	0.00	30.352 
17:30	46.7	46.7	46.7	37	21.8	2	7	292	0.00	30.353 
17:35	46.7	46.7	46.7	35	20.5	3	7	292	0.00	30.353 
17:40	46.4	46.4	46.4	35	20.3	2	5	338	0.00	30.353 
17:45	45.8	45.8	45.8	36	20.4	2	7	315	0.00	30.357 
17:50	45.5	45.5	45.5	38	21.4	1	6	292	0.00	30.357 
17:55	45.4	45.4	45.4	38	21.3	1	4	292	0.00	30.357 
18:00	45.1	45.1	45.1	39	21.6	1	3	315	0.00	30.362 
18:05	44.8	44.8	44.8	40	22.0	0	2	315	0.00	30.362 
18:10	44.6	44.6	44.6	41	22.4	0	1	315	0.00	30.362 
18:15	44.5	44.5	44.5	42	22.9	1	6	338	0.00	30.363 
18:20	44.3	44.3	44.3	43	23.2	0	2	338	0.00	30.363 
18:25	44.3	44.3	44.3	44	23.8	0	1	338	0.00	30.363 
18:30	44.2	44.2	44.2	44	23.7	0	2	338	0.00	30.367 
18:35	44.2	44.2	44.2	45	24.2	0	2	338	0.00	30.367 
18:40	44.1	44.1	44.1	45	24.1	0	1	338	0.00	30.367 
18:45	43.9	43.9	43.9	46	24.5	0	1	338	0.00	30.364 
18:50	43.8	43.8	43.8	46	24.4	0	1	338	0.00	30.364 
18:55	43.5	43.5	43.5	46	24.1	0	1	338	0.00	30.364 
19:00	43.3	43.3	43.3	47	24.4	0	1	338	0.00	30.364 
19:05	43.1	43.1	43.1	47	24.3	0	1	338	0.00	30.364 
19:10	42.9	42.9	42.9	48	24.6	0	1	338	0.00	30.364 
19:15	42.9	42.9	42.9	47	24.1	0	2	338	0.00	30.370 
19:20	42.8	42.8	42.8	47	24.0	0	1	338	0.00	30.370 
19:25	42.5	42.5	42.5	48	24.2	0	1	338	0.00	30.370 
19:30	42.3	42.3	42.3	48	24.0	0	0	---	0.00	30.370 
19:35	42.1	42.1	42.1	48	23.8	0	1	338	0.00	30.370 
19:40	41.8	41.8	41.8	49	24.1	0	1	338	0.00	30.370 
19:45	41.6	41.6	41.6	49	23.9	0	0	---	0.00	30.376 
19:50	41.5	41.5	41.5	49	23.8	0	1	338	0.00	30.376 
19:55	41.3	41.3	41.3	50	24.1	0	1	338	0.00	30.376 
20:00	41.3	41.3	41.3	50	24.1	0	1	338	0.00	30.383 
20:05	41.2	41.2	41.2	50	24.0	0	1	338	0.00	30.383 
20:10	41.2	41.2	41.2	51	24.5	0	1	338	0.00	30.383 
20:15	41.1	41.1	41.1	51	24.4	0	0	---	0.00	30.385 
20:20	40.8	40.8	40.8	52	24.6	0	0	---	0.00	30.385 
20:25	40.5	40.5	40.5	53	24.7	0	0	---	0.00	30.385 
20:30	40.2	40.2	40.2	55	25.3	0	0	---	0.00	30.386 
20:35	39.9	39.9	39.9	56	25.5	0	0	---	0.00	30.386 
20:40	39.5	39.5	39.5	56	25.1	0	0	---	0.00	30.386 
20:45	39.1	39.1	39.1	57	25.2	0	0	---	0.00	30.389 
20:50	38.8	38.8	38.8	58	25.3	0	0	---	0.00	30.389 
20:55	38.3	38.3	38.3	58	24.8	0	0	---	0.00	30.389 
21:00	38.0	38.0	38.0	59	25.0	0	0	---	0.00	30.389 
21:05	37.8	37.8	37.8	60	25.2	0	0	---	0.00	30.389 
21:10	37.5	37.5	37.5	61	25.3	0	0	---	0.00	30.389 
21:15	37.0	37.0	37.0	62	25.2	0	0	---	0.00	30.387 
21:20	36.8	36.8	36.8	63	25.4	0	0	---	0.00	30.387 
21:25	36.5	36.5	36.5	63	25.1	0	0	---	0.00	30.387 
21:30	36.2	36.2	36.2	65	25.6	0	0	---	0.00	30.389 
21:35	35.8	35.8	35.8	66	25.6	0	0	---	0.00	30.389 
21:40	35.5	35.5	35.5	68	26.0	0	0	---	0.00	30.389 
21:45	35.0	35.0	35.0	69	25.9	0	0	---	0.00	30.395 
21:50	34.7	34.7	34.7	70	25.9	0	0	---	0.00	30.395 
21:55	34.6	34.6	34.6	72	26.5	0	0	---	0.00	30.395 
22:00	34.3	34.3	34.3	72	26.2	0	0	---	0.00	30.399 
22:05	34.0	34.0	34.0	73	26.3	0	0	---	0.00	30.399 
22:10	33.8	33.8	33.8	73	26.1	0	0	---	0.00	30.399 
22:15	33.7	33.7	33.7	74	26.3	0	0	---	0.00	30.393 
22:20	33.5	33.5	33.5	75	26.4	0	0	---	0.00	30.393 
22:25	33.4	33.4	33.4	76	26.7	0	0	---	0.00	30.393 
22:30	33.2	33.2	33.2	76	26.5	0	0	---	0.00	30.395 
22:35	33.1	33.1	33.1	77	26.7	0	0	---	0.00	30.395 
22:40	32.9	32.9	32.9	77	26.5	0	0	---	0.00	30.395 
22:45	32.8	32.8	32.8	78	26.7	0	0	---	0.00	30.400 
22:50	32.8	32.8	32.8	78	26.7	0	0	---	0.00	30.400 
22:55	32.7	32.7	32.7	79	26.9	0	0	---	0.00	30.400 
23:00	32.7	32.7	32.7	79	26.9	0	0	---	0.00	30.405 
23:05	32.5	32.5	32.5	79	26.7	0	0	---	0.00	30.405 
23:10	32.4	32.4	32.4	80	26.9	0	0	---	0.00	30.405 
23:15	32.2	32.2	32.2	80	26.7	0	0	---	0.00	30.407 
23:20	32.1	32.1	32.1	80	26.6	0	0	---	0.00	30.407 
23:25	31.9	31.9	31.9	81	26.7	0	0	---	0.00	30.407 
23:30	31.9	31.9	31.9	81	26.7	0	0	---	0.00	30.408 
23:35	31.8	31.8	31.8	81	26.6	0	0	---	0.00	30.408 
23:40	31.6	31.6	31.6	81	26.5	0	0	---	0.00	30.408 
23:45	31.5	31.5	31.5	82	26.7	0	0	---	0.00	30.409 
23:50	31.5	31.5	31.5	82	26.7	0	0	---	0.00	30.409 
23:55	31.3	31.3	31.3	82	26.5	0	0	---	0.00	30.409 

CoCoRaHS
IN-AL-39
A2 Web Hosting
Creative Commons License
GoDaddy
search engine by freefind advanced

loaded 2018-11-15 03:48:12 • last modified 2010-11-18 10:43:29
Privacy PolicyDisclaimer
• wx.awcolley.com is powered by PmWiki v.2002016 •
• all content (unless otherwise noted) © 2018 A W Colley